createdAt,value
2023-05-11T04:02:01.517Z,29.40
2023-05-11T04:04:30.622Z,29.60
2023-05-11T04:06:58.986Z,29.50
2023-05-11T04:09:27.093Z,29.40
2023-05-11T04:11:55.163Z,29.70
2023-05-11T04:14:23.247Z,212.80
2023-05-11T04:16:51.599Z,29.50
2023-05-11T04:19:21.287Z,29.90
2023-05-11T04:21:49.674Z,29.30
2023-05-11T04:24:17.975Z,212.80
2023-05-11T04:26:45.937Z,212.80
2023-05-11T04:29:14.233Z,212.80
2023-05-11T04:31:42.775Z,212.80
2023-05-11T04:34:11.129Z,29.90
2023-05-11T04:36:41.998Z,30.00
2023-05-11T04:39:10.157Z,30.20
2023-05-11T04:41:38.505Z,30.30
2023-05-11T04:44:07.230Z,30.40
2023-05-11T04:46:35.742Z,212.80
2023-05-11T04:49:04.200Z,212.80
2023-05-11T04:51:32.471Z,30.60
2023-05-11T04:54:02.154Z,31.00
2023-05-11T04:56:30.471Z,212.80
2023-05-11T04:58:58.504Z,31.50
2023-05-11T05:01:26.864Z,31.60
2023-05-11T05:03:55.053Z,31.70
2023-05-11T05:06:23.704Z,31.20
2023-05-11T05:08:51.841Z,31.40
2023-05-11T05:11:21.589Z,30.60
2023-05-11T05:13:49.681Z,31.30
2023-05-11T05:16:17.758Z,30.90
2023-05-11T05:18:46.536Z,30.30
2023-05-11T05:21:14.781Z,30.50
2023-05-11T05:23:42.838Z,212.80
2023-05-11T05:26:11.622Z,212.80
2023-05-11T05:28:41.378Z,212.80
2023-05-11T05:31:09.787Z,212.80
2023-05-11T05:33:38.190Z,212.80
2023-05-11T05:36:06.702Z,212.80
2023-05-11T05:38:34.726Z,212.80
2023-05-11T05:41:03.339Z,212.80
2023-05-11T05:43:31.322Z,212.80
2023-05-11T05:46:00.774Z,212.80
2023-05-11T05:48:29.181Z,212.80
2023-05-11T05:50:57.751Z,212.80
2023-05-11T05:53:26.053Z,212.80
2023-05-11T05:55:54.088Z,212.80
2023-05-11T05:58:22.185Z,212.80
2023-05-11T06:00:50.379Z,212.80
2023-05-11T06:03:20.187Z,212.80
2023-05-11T06:05:48.634Z,212.80
2023-05-11T06:08:16.938Z,212.80
2023-05-11T06:10:45.008Z,212.80
2023-05-11T06:13:13.077Z,212.80
2023-05-11T06:15:43.351Z,212.80
2023-05-11T06:18:12.310Z,31.50
2023-05-11T06:20:42.112Z,33.10
2023-05-11T06:23:10.437Z,32.20
2023-05-11T06:25:39.157Z,31.60
2023-05-11T06:28:07.184Z,30.70
2023-05-11T06:30:35.308Z,212.80
2023-05-11T06:33:03.683Z,212.80
2023-05-11T06:35:31.672Z,212.80
2023-05-11T06:38:01.057Z,212.80
2023-05-11T06:40:29.438Z,212.80
2023-05-11T06:42:57.743Z,212.80
2023-05-11T06:45:26.129Z,212.80
2023-05-11T06:47:54.443Z,212.80
2023-05-11T06:50:23.971Z,212.80
2023-05-11T06:52:54.993Z,212.80
2023-05-11T06:55:25.379Z,212.80
2023-05-11T06:57:53.354Z,212.80
2023-05-11T07:00:22.134Z,212.80
2023-05-11T07:02:50.522Z,212.80
2023-05-11T07:05:19.055Z,212.80
2023-05-11T07:07:47.036Z,212.80
2023-05-11T07:10:15.050Z,212.80
2023-05-11T07:12:44.795Z,212.80
2023-05-11T07:15:13.442Z,212.80
2023-05-11T07:17:41.609Z,212.80
2023-05-11T07:20:10.334Z,212.80
2023-05-11T07:22:38.627Z,212.80
2023-05-11T07:25:09.513Z,212.80
2023-05-11T07:27:37.858Z,212.80
2023-05-11T07:30:08.539Z,212.80
2023-05-11T07:32:36.514Z,212.80
2023-05-11T07:35:05.214Z,212.80
2023-05-11T07:37:33.569Z,212.80
2023-05-11T07:40:01.554Z,212.80
2023-05-11T07:42:29.717Z,34.00
2023-05-11T07:44:57.741Z,32.40
2023-05-11T07:47:27.159Z,30.50
2023-05-11T07:49:55.192Z,212.80
2023-05-11T07:52:23.562Z,212.80
2023-05-11T07:54:51.599Z,212.80
2023-05-11T07:57:20.580Z,212.80
2023-05-11T07:59:49.397Z,212.80
2023-05-11T08:02:18.807Z,212.80
2023-05-11T08:04:48.290Z,212.80
2023-05-11T08:07:16.450Z,212.80
2023-05-11T08:09:44.459Z,212.80
2023-05-11T08:12:12.594Z,212.80
2023-05-11T08:14:43.563Z,212.80
2023-05-11T08:17:12.792Z,212.80
2023-05-11T08:19:41.091Z,212.80
2023-05-11T08:22:10.504Z,212.80
2023-05-11T08:24:38.792Z,212.80
2023-05-11T08:27:07.175Z,212.80
2023-05-11T08:29:35.183Z,30.70
2023-05-11T08:32:03.511Z,28.30
2023-05-11T08:34:31.881Z,28.20
2023-05-11T08:37:01.674Z,27.40
2023-05-11T08:39:45.952Z,33.30
2023-05-11T08:42:16.548Z,32.00
2023-05-11T08:44:45.856Z,31.80
2023-05-11T08:49:45.862Z,32.70
2023-05-11T08:52:15.014Z,34.20
2023-05-11T08:54:44.464Z,34.00
2023-05-11T08:57:14.422Z,36.20
2023-05-11T08:59:44.986Z,36.40
2023-05-11T09:02:17.927Z,36.70
2023-05-11T09:04:48.961Z,36.60
2023-05-11T09:07:18.435Z,35.20
2023-05-11T09:09:48.253Z,33.70
2023-05-11T09:12:16.916Z,34.50
2023-05-11T09:14:46.641Z,212.80
2023-05-11T09:17:15.066Z,32.10
2023-05-11T09:20:00.007Z,33.80
2023-05-11T09:22:30.607Z,31.80
2023-05-11T09:25:02.570Z,35.30
2023-05-11T09:27:32.176Z,35.00
2023-05-11T09:30:11.206Z,29.30
2023-05-11T09:32:47.462Z,27.70
2023-05-11T09:35:25.567Z,28.60
2023-05-11T09:38:01.218Z,26.80
2023-05-11T09:40:34.129Z,27.10
2023-05-11T09:43:03.291Z,29.90
2023-05-11T09:45:39.492Z,26.10
2023-05-11T09:48:08.603Z,28.90
2023-05-11T09:50:37.258Z,28.50
2023-05-11T09:53:05.436Z,28.20
2023-05-11T09:55:35.170Z,212.80
2023-05-11T09:58:04.515Z,29.70
2023-05-11T10:00:34.076Z,28.10
2023-05-11T10:03:06.110Z,27.60
2023-05-11T10:05:35.361Z,28.10
2023-05-11T10:08:04.997Z,30.60
2023-05-11T10:10:35.584Z,33.40
2023-05-11T10:13:04.303Z,35.60
2023-05-11T10:15:36.568Z,36.50
2023-05-11T10:18:07.179Z,34.20
2023-05-11T10:20:35.459Z,35.00
2023-05-11T10:23:04.091Z,36.80
2023-05-11T10:25:32.520Z,36.70
2023-05-11T10:28:02.187Z,34.50
2023-05-11T10:30:30.717Z,32.90
2023-05-11T10:32:59.176Z,30.70
2023-05-11T10:35:28.142Z,212.80
2023-05-11T10:37:56.311Z,35.90
2023-05-11T10:40:24.816Z,35.80
2023-05-11T10:43:14.725Z,36.90
2023-05-11T10:45:50.551Z,36.00
2023-05-11T10:48:35.126Z,35.10
2023-05-11T10:51:36.705Z,31.70
2023-05-11T10:54:18.952Z,37.80
2023-05-11T10:57:13.802Z,34.70
2023-05-11T10:59:52.525Z,32.00
2023-05-11T11:02:21.020Z,31.60
2023-05-11T11:04:51.103Z,31.30
2023-05-11T11:07:20.897Z,33.10
2023-05-11T11:09:54.214Z,31.70
2023-05-11T11:12:22.821Z,29.50
2023-05-11T11:14:56.850Z,30.10
2023-05-11T11:17:27.509Z,28.10
2023-05-11T11:19:56.050Z,31.90
2023-05-11T11:22:47.395Z,36.10
2023-05-11T11:25:36.614Z,36.90
2023-05-11T11:28:05.354Z,36.30
2023-05-11T11:30:34.781Z,212.80
2023-05-11T11:33:33.676Z,35.40
2023-05-11T11:36:02.698Z,37.30
2023-05-11T11:38:32.455Z,37.60
2023-05-11T11:41:00.835Z,35.30
2023-05-11T11:43:43.761Z,34.80
2023-05-11T11:46:27.106Z,38.80
2023-05-11T11:49:07.472Z,40.90
2023-05-11T11:51:37.342Z,41.40
2023-05-11T11:54:08.625Z,36.70
2023-05-11T11:56:41.014Z,36.30
2023-05-11T11:59:13.765Z,34.90
2023-05-11T12:01:44.969Z,40.00
2023-05-11T12:04:47.368Z,40.40
2023-05-11T12:07:16.241Z,39.30
2023-05-11T12:09:46.872Z,42.80
2023-05-11T12:12:18.855Z,42.40
2023-05-11T12:14:49.270Z,42.50
2023-05-11T12:17:28.386Z,42.30
2023-05-11T12:20:11.401Z,47.50
2023-05-11T12:22:39.546Z,50.90
2023-05-11T12:25:08.802Z,45.90
2023-05-11T12:27:37.321Z,50.00
2023-05-11T12:30:06.042Z,212.80
2023-05-11T12:32:35.484Z,49.20
2023-05-11T12:35:05.077Z,46.90
2023-05-11T12:37:33.845Z,41.90
2023-05-11T12:40:01.913Z,43.90
2023-05-11T12:42:32.225Z,43.70
2023-05-11T12:45:01.650Z,47.40
2023-05-11T12:47:30.490Z,50.30
2023-05-11T12:49:59.961Z,53.00
2023-05-11T12:52:28.233Z,53.50
2023-05-11T12:55:00.169Z,52.80
2023-05-11T12:57:30.138Z,56.30
2023-05-11T13:00:10.005Z,58.20
2023-05-11T13:02:45.161Z,58.80
2023-05-11T13:05:15.337Z,60.20
2023-05-11T13:07:44.472Z,58.20
2023-05-11T13:10:13.227Z,53.50
2023-05-11T13:12:51.746Z,55.10
2023-05-11T13:15:21.934Z,56.80
2023-05-11T13:17:57.115Z,55.90
2023-05-11T13:20:27.806Z,58.50
2023-05-11T13:23:05.673Z,59.10
2023-05-11T13:25:34.498Z,55.10
2023-05-11T13:28:02.534Z,212.80
2023-05-11T13:30:32.748Z,47.00
2023-05-11T13:33:02.273Z,49.30
2023-05-11T13:35:31.751Z,48.90
2023-05-11T13:38:00.093Z,45.40
2023-05-11T13:40:28.201Z,46.40
2023-05-11T13:42:56.776Z,47.80
2023-05-11T13:45:25.359Z,46.90
2023-05-11T13:47:55.317Z,40.50
2023-05-11T13:50:23.855Z,42.80
2023-05-11T13:52:53.779Z,45.90
2023-05-11T13:55:22.124Z,46.50
2023-05-11T13:57:50.334Z,45.80
2023-05-11T14:00:19.585Z,45.60
2023-05-11T14:02:50.398Z,43.30
2023-05-11T14:05:19.224Z,44.60
2023-05-11T14:07:49.043Z,44.70
2023-05-11T14:10:19.495Z,46.50
2023-05-11T14:12:48.497Z,48.00
2023-05-11T14:15:16.680Z,40.20
2023-05-11T14:17:44.885Z,46.00
2023-05-11T14:20:14.090Z,47.80
2023-05-11T14:22:42.521Z,50.70
2023-05-11T14:25:11.112Z,53.20
2023-05-11T14:27:40.632Z,55.70
2023-05-11T14:30:09.686Z,56.20
2023-05-11T14:32:37.842Z,57.60
2023-05-11T14:35:06.633Z,58.70
2023-05-11T14:37:35.277Z,56.00
2023-05-11T14:40:03.757Z,55.00
2023-05-11T14:42:32.319Z,58.70
2023-05-11T14:45:01.722Z,59.30
2023-05-11T14:47:30.103Z,58.80
2023-05-11T14:49:58.323Z,56.00
2023-05-11T14:52:26.409Z,54.00
2023-05-11T14:54:54.616Z,58.10
2023-05-11T14:57:23.356Z,58.40
2023-05-11T15:02:27.829Z,59.80
2023-05-11T15:04:56.048Z,58.00
2023-05-11T15:07:24.447Z,57.60
2023-05-11T15:09:52.903Z,54.80
2023-05-11T15:12:21.305Z,57.10
2023-05-11T15:14:49.606Z,60.30
2023-05-11T15:17:17.892Z,61.70
2023-05-11T15:19:47.562Z,60.50
2023-05-11T15:22:17.223Z,59.80
2023-05-11T15:24:45.611Z,60.20
2023-05-11T15:27:13.928Z,58.40
2023-05-11T15:29:42.712Z,57.00
2023-05-11T15:32:12.995Z,51.80
2023-05-11T15:34:54.964Z,54.30
2023-05-11T15:37:28.070Z,53.60
2023-05-11T15:39:56.417Z,54.30
2023-05-11T15:42:24.804Z,54.10
2023-05-11T15:44:53.139Z,54.50
2023-05-11T15:47:21.595Z,49.50
2023-05-11T15:49:49.692Z,46.10
2023-05-11T15:52:17.640Z,46.90
2023-05-11T15:54:47.130Z,43.20
2023-05-11T15:57:17.002Z,212.80
2023-05-11T15:59:44.994Z,212.80
2023-05-11T16:02:13.398Z,212.80
2023-05-11T16:04:41.780Z,212.80
2023-05-11T16:07:10.117Z,212.80
2023-05-11T16:09:38.544Z,212.80
2023-05-11T16:12:08.723Z,212.80
2023-05-11T16:14:37.030Z,212.80
2023-05-11T16:17:05.874Z,212.80
2023-05-11T16:19:33.961Z,212.80
2023-05-11T16:22:02.326Z,212.80
2023-05-11T16:24:34.375Z,212.80
2023-05-11T16:27:03.163Z,212.80
2023-05-11T16:29:32.901Z,212.80
2023-05-11T16:32:01.538Z,212.80
2023-05-11T16:34:29.683Z,212.80
2023-05-11T16:36:59.208Z,212.80
2023-05-11T16:39:28.170Z,212.80
2023-05-11T16:41:56.329Z,212.80
2023-05-11T16:44:24.599Z,212.80
2023-05-11T16:46:54.522Z,212.80
2023-05-11T16:49:22.575Z,212.80
2023-05-11T16:51:51.700Z,212.80
2023-05-11T16:54:20.043Z,212.80
2023-05-11T16:56:48.126Z,212.80
2023-05-11T16:59:16.145Z,212.80
2023-05-11T17:01:45.651Z,212.80
2023-05-11T17:04:15.159Z,212.80
2023-05-11T17:06:43.599Z,212.80
2023-05-11T17:09:11.622Z,212.80
2023-05-11T17:11:39.605Z,212.80
2023-05-11T17:14:07.984Z,212.80
2023-05-11T17:16:36.197Z,212.80
2023-05-11T17:19:04.663Z,212.80
2023-05-11T17:21:34.153Z,212.80
2023-05-11T17:24:02.566Z,212.80
2023-05-11T17:26:43.216Z,212.80
2023-05-11T17:29:15.762Z,212.80
2023-05-11T17:31:46.351Z,212.80
2023-05-11T17:34:15.028Z,34.80
2023-05-11T17:36:44.579Z,35.70
2023-05-11T17:39:13.063Z,212.80
2023-05-11T17:41:41.390Z,212.80
2023-05-11T17:44:10.077Z,212.80
2023-05-11T17:46:38.326Z,212.80
2023-05-11T17:49:06.766Z,212.80
2023-05-11T17:51:35.078Z,212.80
2023-05-11T17:54:04.813Z,212.80
2023-05-11T17:56:32.835Z,212.80
2023-05-11T17:59:00.973Z,212.80
2023-05-11T18:01:29.083Z,212.80
2023-05-11T18:03:58.896Z,212.80
2023-05-11T18:06:28.468Z,212.80
2023-05-11T18:08:56.828Z,212.80
2023-05-11T18:11:27.116Z,212.80
2023-05-11T18:13:55.168Z,212.80
2023-05-11T18:16:23.549Z,212.80
2023-05-11T18:18:52.342Z,212.80
2023-05-11T18:21:20.649Z,212.80
2023-05-11T18:23:48.922Z,212.80
2023-05-11T18:26:19.170Z,212.80
2023-05-11T18:28:48.877Z,212.80
2023-05-11T18:31:18.936Z,212.80
2023-05-11T18:33:47.590Z,212.80
2023-05-11T18:36:16.008Z,212.80
2023-05-11T18:38:44.756Z,212.80
2023-05-11T18:41:12.815Z,212.80
2023-05-11T18:43:40.858Z,212.80
2023-05-11T18:46:10.365Z,212.80
2023-05-11T18:48:38.994Z,212.80
2023-05-11T18:51:07.973Z,212.80
2023-05-11T18:53:36.340Z,212.80
2023-05-11T18:56:04.809Z,212.80
2023-05-11T18:58:33.708Z,212.80
2023-05-11T19:01:02.115Z,212.80
2023-05-11T19:03:32.354Z,212.80
2023-05-11T19:06:01.658Z,212.80
2023-05-11T19:08:31.091Z,212.80
2023-05-11T19:10:59.343Z,212.80
2023-05-11T19:13:27.702Z,212.80
2023-05-11T19:15:55.935Z,212.80
2023-05-11T19:18:23.972Z,212.80
2023-05-11T19:20:53.418Z,212.80
2023-05-11T19:23:21.817Z,212.80
2023-05-11T19:25:50.205Z,212.80
2023-05-11T19:28:18.559Z,212.80
2023-05-11T19:30:46.625Z,212.80
2023-05-11T19:33:14.912Z,212.80
2023-05-11T19:35:43.107Z,212.80
2023-05-11T19:38:12.508Z,212.80
2023-05-11T19:40:46.073Z,212.80
2023-05-11T19:43:14.957Z,212.80
2023-05-11T19:45:43.609Z,212.80
2023-05-11T19:48:12.035Z,212.80
2023-05-11T19:50:40.363Z,212.80
2023-05-11T19:53:08.486Z,212.80
2023-05-11T19:55:37.862Z,212.80
2023-05-11T19:58:06.847Z,212.80
2023-05-11T20:00:35.152Z,212.80
2023-05-11T20:03:03.265Z,212.80
2023-05-11T20:05:31.720Z,212.80
2023-05-11T20:07:59.977Z,212.80
2023-05-11T20:10:28.305Z,212.80
2023-05-11T20:12:58.076Z,212.80
2023-05-11T20:15:26.458Z,212.80
2023-05-11T20:17:54.852Z,212.80
2023-05-11T20:20:23.273Z,212.80
2023-05-11T20:22:51.207Z,212.80
2023-05-11T20:25:22.245Z,212.80
2023-05-11T20:27:51.363Z,212.80
2023-05-11T20:30:21.393Z,212.80
2023-05-11T20:35:22.296Z,212.80
2023-05-11T20:37:50.346Z,212.80
2023-05-11T20:40:18.937Z,212.80
2023-05-11T20:42:47.214Z,212.80
2023-05-11T20:45:15.624Z,212.80
2023-05-11T20:47:45.372Z,212.80
2023-05-11T20:50:15.570Z,212.80
2023-05-11T20:52:43.559Z,212.80
2023-05-11T20:55:11.666Z,212.80
2023-05-11T20:57:39.984Z,212.80
